sensor_id;sensor_type;location;lat;lon;timestamp;pressure;altitude;pressure_sealevel;temperature;humidity
54122;BME280;40029;58.708;50.190;2023-03-04T00:01:20;97986.19;;;-0.83;51.64
54122;BME280;40029;58.708;50.190;2023-03-04T00:03:51;98011.34;;;-0.64;51.93
54122;BME280;40029;58.708;50.190;2023-03-04T00:06:22;98033.91;;;-0.41;51.92
54122;BME280;40029;58.708;50.190;2023-03-04T00:08:53;98020.50;;;-0.53;52.16
54122;BME280;40029;58.708;50.190;2023-03-04T00:11:42;97988.00;;;-0.89;52.16
54122;BME280;40029;58.708;50.190;2023-03-04T00:14:14;97939.88;;;-1.09;52.38
54122;BME280;40029;58.708;50.190;2023-03-04T00:16:45;98000.44;;;-0.72;52.56
54122;BME280;40029;58.708;50.190;2023-03-04T00:19:18;97988.53;;;-0.72;51.96
54122;BME280;40029;58.708;50.190;2023-03-04T00:21:49;98003.63;;;-0.61;52.50
54122;BME280;40029;58.708;50.190;2023-03-04T00:24:20;98014.31;;;-0.42;51.78
54122;BME280;40029;58.708;50.190;2023-03-04T00:26:51;98018.66;;;-0.47;52.25
54122;BME280;40029;58.708;50.190;2023-03-04T00:29:22;97969.69;;;-0.69;51.77
54122;BME280;40029;58.708;50.190;2023-03-04T00:32:12;97964.84;;;-0.82;52.02
54122;BME280;40029;58.708;50.190;2023-03-04T00:34:43;98021.94;;;-0.41;52.11
54122;BME280;40029;58.708;50.190;2023-03-04T00:37:14;97993.91;;;-0.47;51.83
54122;BME280;40029;58.708;50.190;2023-03-04T00:39:45;97933.47;;;-0.88;51.65
54122;BME280;40029;58.708;50.190;2023-03-04T00:42:16;98000.59;;;-0.40;51.77
54122;BME280;40029;58.708;50.190;2023-03-04T00:44:47;98013.88;;;-0.24;51.43
54122;BME280;40029;58.708;50.190;2023-03-04T00:47:19;97959.25;;;-0.60;51.39
54122;BME280;40029;58.708;50.190;2023-03-04T00:49:50;98001.53;;;-0.42;51.78
54122;BME280;40029;58.708;50.190;2023-03-04T00:52:22;98011.44;;;-0.30;52.43
54122;BME280;40029;58.708;50.190;2023-03-04T00:54:53;98007.22;;;-0.31;51.64
54122;BME280;40029;58.708;50.190;2023-03-04T00:57:24;97935.66;;;-0.71;52.85
54122;BME280;40029;58.708;50.190;2023-03-04T00:59:55;97957.59;;;-0.61;52.74
54122;BME280;40029;58.708;50.190;2023-03-04T01:02:28;98014.00;;;-0.30;52.87
54122;BME280;40029;58.708;50.190;2023-03-04T01:04:59;97969.53;;;-0.62;52.91
54122;BME280;40029;58.708;50.190;2023-03-04T01:07:30;98000.31;;;-0.28;52.79
54122;BME280;40029;58.708;50.190;2023-03-04T01:10:01;98008.91;;;-0.30;53.20
54122;BME280;40029;58.708;50.190;2023-03-04T01:12:33;98003.59;;;-0.22;52.85
54122;BME280;40029;58.708;50.190;2023-03-04T01:15:05;98003.75;;;-0.29;53.16
54122;BME280;40029;58.708;50.190;2023-03-04T01:17:36;97963.97;;;-0.42;52.02
54122;BME280;40029;58.708;50.190;2023-03-04T01:20:08;97993.81;;;-0.41;53.37
54122;BME280;40029;58.708;50.190;2023-03-04T01:22:39;98004.66;;;-0.31;53.56
54122;BME280;40029;58.708;50.190;2023-03-04T01:25:11;97997.75;;;-0.28;52.55
54122;BME280;40029;58.708;50.190;2023-03-04T01:27:43;97990.81;;;-0.22;53.23
54122;BME280;40029;58.708;50.190;2023-03-04T01:30:32;97939.72;;;-0.63;54.05
54122;BME280;40029;58.708;50.190;2023-03-04T01:33:22;97949.75;;;-0.54;53.13
54122;BME280;40029;58.708;50.190;2023-03-04T01:36:11;97978.28;;;-0.35;53.18
54122;BME280;40029;58.708;50.190;2023-03-04T01:38:42;98002.81;;;-0.24;53.39
54122;BME280;40029;58.708;50.190;2023-03-04T01:41:23;97960.38;;;-0.33;53.46
54122;BME280;40029;58.708;50.190;2023-03-04T01:43:57;97999.31;;;-0.20;53.22
54122;BME280;40029;58.708;50.190;2023-03-04T01:46:30;97988.31;;;-0.26;52.75
54122;BME280;40029;58.708;50.190;2023-03-04T01:49:02;98005.00;;;-0.09;53.35
54122;BME280;40029;58.708;50.190;2023-03-04T01:51:53;97989.19;;;-0.27;52.93
54122;BME280;40029;58.708;50.190;2023-03-04T01:54:24;97972.84;;;-0.19;52.65
54122;BME280;40029;58.708;50.190;2023-03-04T01:56:56;97971.41;;;-0.31;52.01
54122;BME280;40029;58.708;50.190;2023-03-04T01:59:30;98007.44;;;-0.03;51.92
54122;BME280;40029;58.708;50.190;2023-03-04T02:02:01;98012.50;;;0.00;52.34
54122;BME280;40029;58.708;50.190;2023-03-04T02:04:33;98009.88;;;0.02;52.33
54122;BME280;40029;58.708;50.190;2023-03-04T02:07:05;97961.72;;;-0.18;51.56
54122;BME280;40029;58.708;50.190;2023-03-04T02:09:36;98002.31;;;-0.03;52.32
54122;BME280;40029;58.708;50.190;2023-03-04T02:12:07;98018.91;;;0.16;51.80
54122;BME280;40029;58.708;50.190;2023-03-04T02:14:39;97999.56;;;0.05;51.74
54122;BME280;40029;58.708;50.190;2023-03-04T02:17:11;97997.03;;;0.03;51.82
54122;BME280;40029;58.708;50.190;2023-03-04T02:19:52;98020.38;;;0.27;51.70
54122;BME280;40029;58.708;50.190;2023-03-04T02:22:26;98012.75;;;0.23;51.32
54122;BME280;40029;58.708;50.190;2023-03-04T02:25:03;97969.69;;;0.05;51.23
54122;BME280;40029;58.708;50.190;2023-03-04T02:27:55;98017.19;;;0.17;51.43
54122;BME280;40029;58.708;50.190;2023-03-04T02:30:26;97980.00;;;0.02;51.49
54122;BME280;40029;58.708;50.190;2023-03-04T02:32:58;97972.25;;;0.04;51.81
54122;BME280;40029;58.708;50.190;2023-03-04T02:35:29;98021.97;;;0.31;51.57
54122;BME280;40029;58.708;50.190;2023-03-04T02:38:00;97968.09;;;-0.01;52.03
54122;BME280;40029;58.708;50.190;2023-03-04T02:40:33;97970.06;;;-0.10;52.03
54122;BME280;40029;58.708;50.190;2023-03-04T02:43:23;98005.41;;;0.10;51.88
54122;BME280;40029;58.708;50.190;2023-03-04T02:45:55;98001.81;;;0.17;51.68
54122;BME280;40029;58.708;50.190;2023-03-04T02:48:27;98019.44;;;0.29;51.26
54122;BME280;40029;58.708;50.190;2023-03-04T02:50:58;98017.59;;;0.36;51.17
54122;BME280;40029;58.708;50.190;2023-03-04T02:53:29;97968.88;;;0.03;51.77
54122;BME280;40029;58.708;50.190;2023-03-04T02:56:00;98007.47;;;0.30;51.53
54122;BME280;40029;58.708;50.190;2023-03-04T02:58:36;97965.97;;;0.17;51.12
54122;BME280;40029;58.708;50.190;2023-03-04T03:01:08;98007.03;;;0.46;50.90
54122;BME280;40029;58.708;50.190;2023-03-04T03:03:39;97958.44;;;0.11;51.69
54122;BME280;40029;58.708;50.190;2023-03-04T03:06:11;97955.16;;;0.06;51.51
54122;BME280;40029;58.708;50.190;2023-03-04T03:08:42;98014.97;;;0.37;51.90
54122;BME280;40029;58.708;50.190;2023-03-04T03:11:13;97961.19;;;0.03;51.40
54122;BME280;40029;58.708;50.190;2023-03-04T03:13:44;97990.53;;;0.26;51.73
54122;BME280;40029;58.708;50.190;2023-03-04T03:16:16;98009.00;;;0.38;51.88
54122;BME280;40029;58.708;50.190;2023-03-04T03:18:47;97998.63;;;0.43;51.27
54122;BME280;40029;58.708;50.190;2023-03-04T03:21:18;97900.22;;;-0.15;51.25
54122;BME280;40029;58.708;50.190;2023-03-04T03:23:49;97993.31;;;0.49;50.97
54122;BME280;40029;58.708;50.190;2023-03-04T03:26:20;97957.31;;;0.22;51.00
54122;BME280;40029;58.708;50.190;2023-03-04T03:28:51;98006.66;;;0.62;50.63
54122;BME280;40029;58.708;50.190;2023-03-04T03:31:22;97993.78;;;0.63;50.59
54122;BME280;40029;58.708;50.190;2023-03-04T03:33:54;97965.13;;;0.49;50.34
54122;BME280;40029;58.708;50.190;2023-03-04T03:36:25;97998.78;;;0.68;50.72
54122;BME280;40029;58.708;50.190;2023-03-04T03:38:56;98011.13;;;0.86;50.91
54122;BME280;40029;58.708;50.190;2023-03-04T03:41:45;97969.06;;;0.62;50.48
54122;BME280;40029;58.708;50.190;2023-03-04T03:44:35;97972.56;;;0.60;50.40
54122;BME280;40029;58.708;50.190;2023-03-04T03:47:06;98006.28;;;0.75;50.86
54122;BME280;40029;58.708;50.190;2023-03-04T03:49:37;97937.97;;;0.43;50.26
54122;BME280;40029;58.708;50.190;2023-03-04T03:52:08;98017.09;;;0.87;50.56
54122;BME280;40029;58.708;50.190;2023-03-04T03:54:39;97959.69;;;0.61;51.00
54122;BME280;40029;58.708;50.190;2023-03-04T03:57:10;98006.00;;;0.86;50.77
54122;BME280;40029;58.708;50.190;2023-03-04T03:59:41;97971.66;;;0.61;50.29
54122;BME280;40029;58.708;50.190;2023-03-04T04:02:12;97979.09;;;0.70;51.00
54122;BME280;40029;58.708;50.190;2023-03-04T04:04:43;97971.38;;;0.71;50.03
54122;BME280;40029;58.708;50.190;2023-03-04T04:07:15;98030.25;;;1.06;50.27
54122;BME280;40029;58.708;50.190;2023-03-04T04:10:04;98022.69;;;1.01;50.60
54122;BME280;40029;58.708;50.190;2023-03-04T04:12:36;97977.84;;;0.85;49.92
54122;BME280;40029;58.708;50.190;2023-03-04T04:15:10;98002.88;;;1.06;50.38
54122;BME280;40029;58.708;50.190;2023-03-04T04:17:41;98018.72;;;1.20;50.69
54122;BME280;40029;58.708;50.190;2023-03-04T04:20:12;98038.94;;;1.31;50.45
54122;BME280;40029;58.708;50.190;2023-03-04T04:22:45;97984.13;;;1.04;49.93
54122;BME280;40029;58.708;50.190;2023-03-04T04:25:16;97997.66;;;1.09;49.74
54122;BME280;40029;58.708;50.190;2023-03-04T04:28:05;98040.63;;;1.32;50.14
54122;BME280;40029;58.708;50.190;2023-03-04T04:30:37;98022.19;;;1.19;50.45
54122;BME280;40029;58.708;50.190;2023-03-04T04:33:08;97996.06;;;1.05;50.39
54122;BME280;40029;58.708;50.190;2023-03-04T04:35:58;97987.69;;;1.00;49.83
54122;BME280;40029;58.708;50.190;2023-03-04T04:38:31;98028.19;;;1.18;50.11
54122;BME280;40029;58.708;50.190;2023-03-04T04:41:02;98014.22;;;0.99;50.95
54122;BME280;40029;58.708;50.190;2023-03-04T04:43:34;98039.00;;;1.30;50.01
54122;BME280;40029;58.708;50.190;2023-03-04T04:46:05;98035.41;;;1.35;50.21
54122;BME280;40029;58.708;50.190;2023-03-04T04:48:36;98040.78;;;1.28;50.04
54122;BME280;40029;58.708;50.190;2023-03-04T04:51:07;98057.38;;;1.44;50.47
54122;BME280;40029;58.708;50.190;2023-03-04T04:53:39;98005.94;;;1.19;50.07
54122;BME280;40029;58.708;50.190;2023-03-04T04:56:15;98018.94;;;1.13;50.12
54122;BME280;40029;58.708;50.190;2023-03-04T04:58:47;98060.63;;;1.50;49.90
54122;BME280;40029;58.708;50.190;2023-03-04T05:01:37;98013.59;;;1.20;50.28
54122;BME280;40029;58.708;50.190;2023-03-04T05:04:09;98056.41;;;1.48;49.76
54122;BME280;40029;58.708;50.190;2023-03-04T05:06:40;98006.81;;;1.19;49.42
54122;BME280;40029;58.708;50.190;2023-03-04T05:09:11;98066.38;;;1.59;49.05
54122;BME280;40029;58.708;50.190;2023-03-04T05:11:42;97973.19;;;0.97;50.23
54122;BME280;40029;58.708;50.190;2023-03-04T05:14:13;98030.88;;;1.45;49.89
54122;BME280;40029;58.708;50.190;2023-03-04T05:16:44;98044.31;;;1.53;49.30
54122;BME280;40029;58.708;50.190;2023-03-04T05:19:16;98017.69;;;1.56;49.79
54122;BME280;40029;58.708;50.190;2023-03-04T05:21:47;98027.66;;;1.66;49.04
54122;BME280;40029;58.708;50.190;2023-03-04T05:24:18;98070.94;;;2.07;49.14
54122;BME280;40029;58.708;50.190;2023-03-04T05:26:49;98038.13;;;1.87;48.53
54122;BME280;40029;58.708;50.190;2023-03-04T05:29:20;98023.47;;;1.90;48.75
54122;BME280;40029;58.708;50.190;2023-03-04T05:31:52;98084.16;;;2.22;48.25
54122;BME280;40029;58.708;50.190;2023-03-04T05:34:23;98036.84;;;2.02;48.07
54122;BME280;40029;58.708;50.190;2023-03-04T05:36:54;98077.41;;;2.45;47.90
54122;BME280;40029;58.708;50.190;2023-03-04T05:39:25;98045.22;;;2.35;47.74
54122;BME280;40029;58.708;50.190;2023-03-04T05:41:56;98059.53;;;2.42;47.30
54122;BME280;40029;58.708;50.190;2023-03-04T05:44:27;98060.31;;;2.44;47.28
54122;BME280;40029;58.708;50.190;2023-03-04T05:46:58;98038.13;;;2.41;47.04
54122;BME280;40029;58.708;50.190;2023-03-04T05:49:29;98041.13;;;2.54;46.67
54122;BME280;40029;58.708;50.190;2023-03-04T05:52:00;98034.16;;;2.58;46.46
54122;BME280;40029;58.708;50.190;2023-03-04T05:54:31;98042.53;;;2.64;46.36
54122;BME280;40029;58.708;50.190;2023-03-04T05:57:02;98041.69;;;2.64;46.15
54122;BME280;40029;58.708;50.190;2023-03-04T05:59:33;98091.00;;;3.00;45.85
54122;BME280;40029;58.708;50.190;2023-03-04T06:02:04;98050.34;;;2.86;45.28
54122;BME280;40029;58.708;50.190;2023-03-04T06:04:35;98091.84;;;3.25;45.63
54122;BME280;40029;58.708;50.190;2023-03-04T06:07:06;98049.31;;;3.15;44.86
54122;BME280;40029;58.708;50.190;2023-03-04T06:09:37;98012.44;;;2.91;44.82
54122;BME280;40029;58.708;50.190;2023-03-04T06:12:08;98050.91;;;3.19;44.52
54122;BME280;40029;58.708;50.190;2023-03-04T06:14:39;98052.56;;;3.20;44.25
54122;BME280;40029;58.708;50.190;2023-03-04T06:17:29;98093.81;;;3.42;44.40
54122;BME280;40029;58.708;50.190;2023-03-04T06:20:00;98060.97;;;3.25;43.57
54122;BME280;40029;58.708;50.190;2023-03-04T06:22:32;98090.22;;;3.46;43.81
54122;BME280;40029;58.708;50.190;2023-03-04T06:25:04;98067.34;;;3.39;43.53
54122;BME280;40029;58.708;50.190;2023-03-04T06:27:35;98022.84;;;3.12;43.20
54122;BME280;40029;58.708;50.190;2023-03-04T06:30:07;98099.84;;;3.65;42.98
54122;BME280;40029;58.708;50.190;2023-03-04T06:32:38;98105.06;;;3.63;42.97
54122;BME280;40029;58.708;50.190;2023-03-04T06:35:11;98089.25;;;3.74;43.41
54122;BME280;40029;58.708;50.190;2023-03-04T06:37:42;98068.00;;;3.67;41.79
54122;BME280;40029;58.708;50.190;2023-03-04T06:40:13;98043.63;;;3.54;42.55
54122;BME280;40029;58.708;50.190;2023-03-04T06:42:45;98078.94;;;3.74;42.34
54122;BME280;40029;58.708;50.190;2023-03-04T06:45:16;98061.47;;;3.59;42.18
54122;BME280;40029;58.708;50.190;2023-03-04T06:47:47;98100.31;;;3.76;41.88
54122;BME280;40029;58.708;50.190;2023-03-04T06:50:18;98096.34;;;3.67;41.72
54122;BME280;40029;58.708;50.190;2023-03-04T06:52:49;98053.69;;;3.37;42.64
54122;BME280;40029;58.708;50.190;2023-03-04T06:55:20;98088.16;;;3.56;42.55
54122;BME280;40029;58.708;50.190;2023-03-04T06:57:51;98103.50;;;3.59;41.92
54122;BME280;40029;58.708;50.190;2023-03-04T07:00:22;98066.50;;;3.38;42.43
54122;BME280;40029;58.708;50.190;2023-03-04T07:02:57;98114.09;;;3.75;41.83
54122;BME280;40029;58.708;50.190;2023-03-04T07:05:28;98100.25;;;3.54;41.31
54122;BME280;40029;58.708;50.190;2023-03-04T07:08:18;98089.00;;;3.57;42.03
54122;BME280;40029;58.708;50.190;2023-03-04T07:10:49;98113.28;;;3.73;42.16
54122;BME280;40029;58.708;50.190;2023-03-04T07:13:20;98087.31;;;3.56;42.03
54122;BME280;40029;58.708;50.190;2023-03-04T07:15:52;98035.00;;;3.32;41.22
54122;BME280;40029;58.708;50.190;2023-03-04T07:18:23;98065.13;;;3.53;40.83
54122;BME280;40029;58.708;50.190;2023-03-04T07:20:54;98036.91;;;3.50;40.68
54122;BME280;40029;58.708;50.190;2023-03-04T07:23:44;98106.66;;;4.13;40.19
54122;BME280;40029;58.708;50.190;2023-03-04T07:26:16;98115.22;;;4.13;40.32
54122;BME280;40029;58.708;50.190;2023-03-04T07:28:47;98097.81;;;3.96;40.29
54122;BME280;40029;58.708;50.190;2023-03-04T07:31:22;98123.63;;;4.18;40.41
54122;BME280;40029;58.708;50.190;2023-03-04T07:34:00;98116.91;;;4.14;40.36
54122;BME280;40029;58.708;50.190;2023-03-04T07:36:34;98034.81;;;3.60;40.51
54122;BME280;40029;58.708;50.190;2023-03-04T07:39:06;98070.06;;;3.81;40.24
54122;BME280;40029;58.708;50.190;2023-03-04T07:41:37;98081.50;;;3.74;39.91
54122;BME280;40029;58.708;50.190;2023-03-04T07:44:27;98129.38;;;3.80;40.65
54122;BME280;40029;58.708;50.190;2023-03-04T07:46:58;98083.69;;;3.61;40.16
54122;BME280;40029;58.708;50.190;2023-03-04T07:49:30;98090.34;;;3.67;40.79
54122;BME280;40029;58.708;50.190;2023-03-04T07:52:04;98097.09;;;3.69;41.11
54122;BME280;40029;58.708;50.190;2023-03-04T07:54:35;98128.03;;;3.93;38.85
54122;BME280;40029;58.708;50.190;2023-03-04T07:57:06;98121.53;;;3.83;40.78
54122;BME280;40029;58.708;50.190;2023-03-04T07:59:37;98122.09;;;3.67;41.08
54122;BME280;40029;58.708;50.190;2023-03-04T08:02:09;98099.59;;;3.49;40.90
54122;BME280;40029;58.708;50.190;2023-03-04T08:04:40;98103.03;;;3.48;41.06
54122;BME280;40029;58.708;50.190;2023-03-04T08:07:11;98143.47;;;3.69;41.57
54122;BME280;40029;58.708;50.190;2023-03-04T08:09:42;98122.34;;;3.61;41.79
54122;BME280;40029;58.708;50.190;2023-03-04T08:12:13;98138.78;;;3.81;41.56
54122;BME280;40029;58.708;50.190;2023-03-04T08:14:44;98078.59;;;3.60;41.56
54122;BME280;40029;58.708;50.190;2023-03-04T08:17:34;98134.13;;;3.90;41.95
54122;BME280;40029;58.708;50.190;2023-03-04T08:20:06;98089.69;;;3.62;41.12
54122;BME280;40029;58.708;50.190;2023-03-04T08:22:37;98105.91;;;3.64;40.75
54122;BME280;40029;58.708;50.190;2023-03-04T08:25:09;98141.34;;;3.81;41.05
54122;BME280;40029;58.708;50.190;2023-03-04T08:27:40;98137.31;;;3.97;41.04
54122;BME280;40029;58.708;50.190;2023-03-04T08:30:12;98059.50;;;3.65;41.10
54122;BME280;40029;58.708;50.190;2023-03-04T08:32:43;98089.84;;;4.03;41.03
54122;BME280;40029;58.708;50.190;2023-03-04T08:35:14;98141.28;;;4.49;41.04
54122;BME280;40029;58.708;50.190;2023-03-04T08:37:45;98133.25;;;4.57;40.69
54122;BME280;40029;58.708;50.190;2023-03-04T08:40:16;98089.50;;;4.34;40.40
54122;BME280;40029;58.708;50.190;2023-03-04T08:42:47;98134.09;;;4.58;40.58
54122;BME280;40029;58.708;50.190;2023-03-04T08:45:18;98089.88;;;4.46;40.65
54122;BME280;40029;58.708;50.190;2023-03-04T08:48:08;98124.28;;;4.67;40.49
54122;BME280;40029;58.708;50.190;2023-03-04T08:50:39;98140.03;;;4.82;41.34
54122;BME280;40029;58.708;50.190;2023-03-04T08:53:29;98132.16;;;4.85;41.30
54122;BME280;40029;58.708;50.190;2023-03-04T08:56:00;98090.78;;;4.66;41.19
54122;BME280;40029;58.708;50.190;2023-03-04T08:58:31;98083.16;;;4.63;40.66
54122;BME280;40029;58.708;50.190;2023-03-04T09:01:02;98132.34;;;5.00;41.12
54122;BME280;40029;58.708;50.190;2023-03-04T09:03:33;98091.16;;;4.57;40.42
54122;BME280;40029;58.708;50.190;2023-03-04T09:06:05;98107.00;;;4.47;40.55
54122;BME280;40029;58.708;50.190;2023-03-04T09:08:36;98122.56;;;4.66;40.84
54122;BME280;40029;58.708;50.190;2023-03-04T09:11:08;98096.50;;;4.52;41.13
54122;BME280;40029;58.708;50.190;2023-03-04T09:13:39;98112.41;;;4.63;40.33
54122;BME280;40029;58.708;50.190;2023-03-04T09:16:12;98129.25;;;4.72;40.09
54122;BME280;40029;58.708;50.190;2023-03-04T09:18:43;98141.22;;;4.73;40.92
54122;BME280;40029;58.708;50.190;2023-03-04T09:21:15;98097.53;;;4.48;40.75
54122;BME280;40029;58.708;50.190;2023-03-04T09:23:46;98117.31;;;4.47;41.06
54122;BME280;40029;58.708;50.190;2023-03-04T09:26:23;98105.56;;;4.40;40.34
54122;BME280;40029;58.708;50.190;2023-03-04T09:28:57;98097.09;;;4.37;40.76
54122;BME280;40029;58.708;50.190;2023-03-04T09:31:28;98080.50;;;4.44;41.15
54122;BME280;40029;58.708;50.190;2023-03-04T09:33:59;98118.00;;;4.73;41.04
54122;BME280;40029;58.708;50.190;2023-03-04T09:36:30;98096.69;;;4.47;41.28
54122;BME280;40029;58.708;50.190;2023-03-04T09:39:02;98110.50;;;4.46;41.18
54122;BME280;40029;58.708;50.190;2023-03-04T09:41:56;98135.44;;;4.68;40.99
54122;BME280;40029;58.708;50.190;2023-03-04T09:44:39;98121.28;;;4.56;40.96
54122;BME280;40029;58.708;50.190;2023-03-04T09:47:13;98090.53;;;4.30;41.89
54122;BME280;40029;58.708;50.190;2023-03-04T09:49:57;98134.75;;;4.63;41.33
54122;BME280;40029;58.708;50.190;2023-03-04T09:55:44;98097.53;;;4.26;41.67
54122;BME280;40029;58.708;50.190;2023-03-04T09:58:46;98148.31;;;4.68;41.39
54122;BME280;40029;58.708;50.190;2023-03-04T10:01:35;98135.16;;;4.74;40.56
54122;BME280;40029;58.708;50.190;2023-03-04T10:04:17;98139.09;;;4.83;41.41
54122;BME280;40029;58.708;50.190;2023-03-04T10:06:52;98143.25;;;4.87;40.64
54122;BME280;40029;58.708;50.190;2023-03-04T10:09:31;98091.13;;;4.79;41.20
54122;BME280;40029;58.708;50.190;2023-03-04T10:12:14;98139.38;;;5.17;40.85
54122;BME280;40029;58.708;50.190;2023-03-04T10:14:57;98122.81;;;5.03;40.32
54122;BME280;40029;58.708;50.190;2023-03-04T10:17:37;98139.66;;;5.32;40.47
54122;BME280;40029;58.708;50.190;2023-03-04T10:20:30;98141.56;;;5.26;40.14
54122;BME280;40029;58.708;50.190;2023-03-04T10:23:18;98130.91;;;5.34;39.15
54122;BME280;40029;58.708;50.190;2023-03-04T10:25:52;98136.56;;;5.44;40.25
54122;BME280;40029;58.708;50.190;2023-03-04T10:28:26;98131.75;;;5.35;40.15
54122;BME280;40029;58.708;50.190;2023-03-04T10:31:37;98144.31;;;5.44;38.41
54122;BME280;40029;58.708;50.190;2023-03-04T10:34:13;98121.00;;;5.25;39.79
54122;BME280;40029;58.708;50.190;2023-03-04T10:37:04;98138.34;;;5.42;40.75
54122;BME280;40029;58.708;50.190;2023-03-04T10:39:45;98140.81;;;5.45;39.68
54122;BME280;40029;58.708;50.190;2023-03-04T10:44:56;98136.81;;;5.38;39.80
54122;BME280;40029;58.708;50.190;2023-03-04T10:47:30;98133.06;;;5.45;40.29
54122;BME280;40029;58.708;50.190;2023-03-04T10:50:03;98090.66;;;5.10;40.06
54122;BME280;40029;58.708;50.190;2023-03-04T10:52:40;98097.69;;;5.26;40.14
54122;BME280;40029;58.708;50.190;2023-03-04T10:55:18;98129.16;;;5.55;40.58
54122;BME280;40029;58.708;50.190;2023-03-04T10:57:54;98145.94;;;5.65;40.32
54122;BME280;40029;58.708;50.190;2023-03-04T11:00:30;98100.81;;;5.14;39.69
54122;BME280;40029;58.708;50.190;2023-03-04T11:08:42;98136.72;;;5.39;40.17
54122;BME280;40029;58.708;50.190;2023-03-04T11:11:52;98140.81;;;5.45;39.82
54122;BME280;40029;58.708;50.190;2023-03-04T11:14:27;98134.53;;;5.30;40.85
54122;BME280;40029;58.708;50.190;2023-03-04T11:17:02;98135.53;;;5.28;40.95
54122;BME280;40029;58.708;50.190;2023-03-04T11:19:38;98097.97;;;5.00;40.78
54122;BME280;40029;58.708;50.190;2023-03-04T11:22:13;98115.63;;;5.09;41.32
54122;BME280;40029;58.708;50.190;2023-03-04T11:25:34;98142.28;;;5.30;40.58
54122;BME280;40029;58.708;50.190;2023-03-04T11:27:47;98142.56;;;5.24;41.62
54122;BME280;40029;58.708;50.190;2023-03-04T11:30:38;98137.06;;;5.11;41.39
54122;BME280;40029;58.708;50.190;2023-03-04T11:33:39;98098.84;;;4.79;41.37
54122;BME280;40029;58.708;50.190;2023-03-04T11:38:50;98114.84;;;4.87;42.23
54122;BME280;40029;58.708;50.190;2023-03-04T11:41:44;98092.09;;;4.76;42.13
54122;BME280;40029;58.708;50.190;2023-03-04T11:44:17;98130.44;;;5.06;42.28
54122;BME280;40029;58.708;50.190;2023-03-04T11:53:07;98090.22;;;5.20;41.22
54122;BME280;40029;58.708;50.190;2023-03-04T11:56:15;98139.34;;;5.58;40.97
54122;BME280;40029;58.708;50.190;2023-03-04T11:59:03;98133.03;;;5.65;40.40
54122;BME280;40029;58.708;50.190;2023-03-04T12:04:38;98135.50;;;5.48;40.52
54122;BME280;40029;58.708;50.190;2023-03-04T12:10:22;98132.56;;;5.16;41.08
54122;BME280;40029;58.708;50.190;2023-03-04T12:36:41;98118.34;;;4.86;41.53
54122;BME280;40029;58.708;50.190;2023-03-04T12:42:19;98111.53;;;4.85;41.96
54122;BME280;40029;58.708;50.190;2023-03-04T12:48:17;98137.84;;;4.50;41.66
54122;BME280;40029;58.708;50.190;2023-03-04T12:51:31;98091.03;;;3.94;42.06
54122;BME280;40029;58.708;50.190;2023-03-04T12:54:22;98135.94;;;4.10;42.42
54122;BME280;40029;58.708;50.190;2023-03-04T12:57:22;98089.44;;;3.68;42.64
54122;BME280;40029;58.708;50.190;2023-03-04T13:03:01;98078.59;;;3.36;43.50
54122;BME280;40029;58.708;50.190;2023-03-04T13:15:37;98126.91;;;3.53;43.99
54122;BME280;40029;58.708;50.190;2023-03-04T13:23:25;98121.22;;;3.43;45.04
54122;BME280;40029;58.708;50.190;2023-03-04T13:28:31;98071.16;;;3.04;45.10
54122;BME280;40029;58.708;50.190;2023-03-04T13:33:59;98112.50;;;3.24;45.20
54122;BME280;40029;58.708;50.190;2023-03-04T13:36:34;98120.06;;;3.29;45.59
54122;BME280;40029;58.708;50.190;2023-03-04T13:39:25;98110.94;;;3.18;45.63
54122;BME280;40029;58.708;50.190;2023-03-04T13:41:56;98113.53;;;3.18;45.78
54122;BME280;40029;58.708;50.190;2023-03-04T13:47:31;98118.06;;;3.12;46.21
54122;BME280;40029;58.708;50.190;2023-03-04T13:50:35;98128.28;;;3.13;46.09
54122;BME280;40029;58.708;50.190;2023-03-04T13:56:22;98123.56;;;3.01;46.39
54122;BME280;40029;58.708;50.190;2023-03-04T14:07:36;98126.97;;;3.01;46.79
54122;BME280;40029;58.708;50.190;2023-03-04T14:10:25;98111.53;;;2.77;47.56
54122;BME280;40029;58.708;50.190;2023-03-04T14:12:57;98132.66;;;2.86;47.67
54122;BME280;40029;58.708;50.190;2023-03-04T14:15:29;98108.09;;;2.76;48.04
54122;BME280;40029;58.708;50.190;2023-03-04T14:18:03;98094.72;;;2.66;47.85
54122;BME280;40029;58.708;50.190;2023-03-04T14:20:38;98079.75;;;2.53;48.36
54122;BME280;40029;58.708;50.190;2023-03-04T14:23:27;98132.50;;;2.91;48.44
54122;BME280;40029;58.708;50.190;2023-03-04T14:26:05;98132.72;;;2.85;48.85
54122;BME280;40029;58.708;50.190;2023-03-04T14:28:48;98125.13;;;2.80;48.77
54122;BME280;40029;58.708;50.190;2023-03-04T14:31:23;98077.94;;;2.55;49.12
54122;BME280;40029;58.708;50.190;2023-03-04T14:34:30;98124.09;;;2.86;48.78
54122;BME280;40029;58.708;50.190;2023-03-04T14:37:20;98044.16;;;2.40;48.95
54122;BME280;40029;58.708;50.190;2023-03-04T14:40:19;98114.72;;;2.83;49.72
54122;BME280;40029;58.708;50.190;2023-03-04T14:43:19;98067.44;;;2.62;49.72
54122;BME280;40029;58.708;50.190;2023-03-04T14:45:51;98088.69;;;2.67;50.16
54122;BME280;40029;58.708;50.190;2023-03-04T14:48:28;98123.69;;;2.98;49.75
54122;BME280;40029;58.708;50.190;2023-03-04T14:51:02;98117.78;;;2.94;49.95
54122;BME280;40029;58.708;50.190;2023-03-04T14:53:33;98101.72;;;2.88;50.10
54122;BME280;40029;58.708;50.190;2023-03-04T14:56:07;98117.72;;;2.97;50.19
54122;BME280;40029;58.708;50.190;2023-03-04T14:58:52;98074.78;;;2.73;49.97
54122;BME280;40029;58.708;50.190;2023-03-04T15:01:33;98068.00;;;2.70;49.90
54122;BME280;40029;58.708;50.190;2023-03-04T15:04:10;98087.19;;;2.87;50.59
54122;BME280;40029;58.708;50.190;2023-03-04T15:06:54;98111.41;;;3.06;49.81
54122;BME280;40029;58.708;50.190;2023-03-04T15:09:26;98106.66;;;2.94;50.05
54122;BME280;40029;58.708;50.190;2023-03-04T15:12:00;98120.13;;;3.02;49.93
54122;BME280;40029;58.708;50.190;2023-03-04T15:17:30;98076.22;;;2.82;50.44
54122;BME280;40029;58.708;50.190;2023-03-04T15:25:14;98102.63;;;2.87;49.96